Time;durP1;ratioP1;P1;durP2;ratioP2;P2;SDS_P1;SDS_P2;PMS_P1;PMS_P2;Temp;Humidity;BMP_temperature;BMP_pressure;BME280_temperature;BME280_humidity;BME280_pressure;Samples;Min_cycle;Max_cycle;Signal;HPM_P1;HPM_P2
2022/07/10 00:00:35;;;;;;;3.37;3.07;;;17.10;99.90;;;;;;5008336;28;20058;-74
2022/07/10 00:03:01;;;;;;;3.85;3.45;;;17.10;99.90;;;;;;5000995;28;20114;-74
2022/07/10 00:05:27;;;;;;;5.00;3.50;;;17.00;99.90;;;;;;5000547;28;20309;-74
2022/07/10 00:07:53;;;;;;;3.73;3.27;;;17.00;99.90;;;;;;5007774;28;20331;-74
2022/07/10 00:10:19;;;;;;;6.83;3.57;;;17.00;99.90;;;;;;5019739;28;20033;-74
2022/07/10 00:12:46;;;;;;;7.43;4.13;;;17.00;99.90;;;;;;5003468;28;20032;-74
2022/07/10 00:15:11;;;;;;;4.35;3.95;;;16.90;99.90;;;;;;5021034;28;20021;-74
2022/07/10 00:17:39;;;;;;;5.40;3.83;;;17.00;99.90;;;;;;5019861;28;20309;-74
2022/07/10 00:20:06;;;;;;;5.32;4.07;;;16.90;99.90;;;;;;5023761;28;20213;-74
2022/07/10 00:22:35;;;;;;;5.63;3.90;;;16.90;99.90;;;;;;5023762;28;20056;-74
2022/07/10 00:25:02;;;;;;;8.45;3.92;;;16.90;99.90;;;;;;5024402;28;20077;-73
2022/07/10 00:27:28;;;;;;;4.65;3.75;;;16.90;99.90;;;;;;5023444;28;20028;-73
2022/07/10 00:29:54;;;;;;;5.13;4.23;;;16.90;99.90;;;;;;5018965;28;20034;-74
2022/07/10 00:32:20;;;;;;;6.33;4.33;;;16.80;99.90;;;;;;5005254;28;20026;-73
2022/07/10 00:34:45;;;;;;;7.13;4.30;;;16.80;99.90;;;;;;5003863;28;20026;-73
2022/07/10 00:37:11;;;;;;;5.60;4.17;;;16.80;99.90;;;;;;5005156;28;20030;-73
2022/07/10 00:39:37;;;;;;;4.57;3.87;;;16.80;99.90;;;;;;5005048;28;20077;-73
2022/07/10 00:42:11;;;;;;;4.77;4.17;;;16.80;99.90;;;;;;5019582;28;20029;-73
2022/07/10 00:44:37;;;;;;;5.50;4.13;;;16.70;99.90;;;;;;5007903;28;20279;-74
2022/07/10 00:47:04;;;;;;;5.43;4.40;;;16.70;99.90;;;;;;5023557;28;20025;-73
2022/07/10 00:49:30;;;;;;;;;;;16.70;99.90;;;;;;5023887;28;20049;-74
2022/07/10 00:51:56;;;;;;;3.92;3.53;;;16.70;99.90;;;;;;5023415;28;19921;-73
2022/07/10 00:54:22;;;;;;;7.97;4.17;;;16.70;99.90;;;;;;5006530;28;20018;-73
2022/07/10 00:56:48;;;;;;;4.13;3.73;;;16.70;99.90;;;;;;5023206;28;20024;-73
2022/07/10 00:59:13;;;;;;;4.87;3.93;;;16.70;99.90;;;;;;5006482;28;20018;-74
2022/07/10 01:01:39;;;;;;;5.90;4.43;;;16.70;99.90;;;;;;5004581;28;20030;-74
2022/07/10 01:04:06;;;;;;;5.13;4.27;;;16.70;99.90;;;;;;5003151;28;20102;-74
2022/07/10 01:06:32;;;;;;;5.20;4.60;;;16.70;99.90;;;;;;5003589;28;20040;-74
2022/07/10 01:08:58;;;;;;;6.43;4.60;;;16.70;99.90;;;;;;5003232;28;20101;-74
2022/07/10 01:11:24;;;;;;;5.77;4.03;;;16.50;99.90;;;;;;5003183;28;20038;-74
2022/07/10 01:13:49;;;;;;;9.47;4.67;;;16.50;99.90;;;;;;5008218;28;20033;-74
2022/07/10 01:16:15;;;;;;;5.27;3.90;;;16.50;99.90;;;;;;5024000;28;20217;-73
2022/07/10 01:18:41;;;;;;;6.50;4.20;;;16.40;99.90;;;;;;5006306;28;20224;-73
2022/07/10 01:21:23;;;;;;;5.73;4.37;;;16.40;99.90;;;;;;5023782;28;20029;-74
2022/07/10 01:23:48;;;;;;;7.18;5.10;;;16.30;99.90;;;;;;5022780;28;20325;-74
2022/07/10 01:26:14;;;;;;;8.33;4.60;;;16.30;99.90;;;;;;5023562;28;20029;-74
2022/07/10 01:28:40;;;;;;;4.63;3.90;;;16.40;99.90;;;;;;5023866;28;20052;-74
2022/07/10 01:31:05;;;;;;;5.37;4.70;;;16.30;99.90;;;;;;4990746;28;20030;-74
2022/07/10 01:33:31;;;;;;;5.97;4.27;;;16.30;99.90;;;;;;5027450;23;20022;-75
2022/07/10 01:35:57;;;;;;;7.40;4.47;;;16.30;99.90;;;;;;5019904;28;20030;-74
2022/07/10 01:38:23;;;;;;;6.27;3.97;;;16.40;99.90;;;;;;5024820;28;20025;-74
2022/07/10 01:40:48;;;;;;;5.17;3.77;;;16.40;99.90;;;;;;5024901;28;20022;-74
2022/07/10 01:43:14;;;;;;;4.50;4.03;;;16.40;99.90;;;;;;5023534;28;20028;-74
2022/07/10 01:45:40;;;;;;;4.73;3.70;;;16.40;99.90;;;;;;5024865;28;20022;-74
2022/07/10 01:48:06;;;;;;;4.70;3.80;;;16.50;99.90;;;;;;5032517;28;20029;-73
2022/07/10 01:50:32;;;;;;;4.53;3.90;;;16.50;99.90;;;;;;5034558;28;20030;-74
2022/07/10 01:52:57;;;;;;;4.43;3.40;;;16.50;99.90;;;;;;5044258;28;20081;-73
2022/07/10 01:55:23;;;;;;;5.20;3.50;;;16.50;99.90;;;;;;5044487;28;20088;-74
2022/07/10 01:57:49;;;;;;;6.27;3.30;;;16.50;99.90;;;;;;5038458;28;20021;-74
2022/07/10 02:00:15;;;;;;;5.10;3.50;;;16.50;99.90;;;;;;5035419;28;20060;-73
2022/07/10 02:02:40;;;;;;;3.87;3.47;;;16.50;99.90;;;;;;5035416;28;20021;-73
2022/07/10 02:05:06;;;;;;;3.50;3.20;;;16.50;99.90;;;;;;5020894;28;20022;-73
2022/07/10 02:07:32;;;;;;;4.95;3.72;;;16.50;99.90;;;;;;5004929;28;20400;-73
2022/07/10 02:09:58;;;;;;;5.20;2.80;;;16.50;99.90;;;;;;5004791;28;20022;-75
2022/07/10 02:12:23;;;;;;;5.93;3.33;;;16.50;99.90;;;;;;5004701;28;20033;-75
2022/07/10 02:14:49;;;;;;;4.70;3.43;;;16.50;99.90;;;;;;5004315;28;20030;-74
2022/07/10 02:17:16;;;;;;;7.70;3.47;;;16.50;99.90;;;;;;5003598;28;20030;-74
2022/07/10 02:19:41;;;;;;;3.92;3.05;;;16.40;99.90;;;;;;5010366;28;20053;-74
2022/07/10 02:22:07;;;;;;;5.40;3.23;;;16.40;99.90;;;;;;5024181;28;20034;-74
2022/07/10 02:24:33;;;;;;;5.23;3.10;;;16.40;99.90;;;;;;5023060;28;20256;-74
2022/07/10 02:26:59;;;;;;;5.23;3.20;;;16.40;99.90;;;;;;5024326;28;20348;-74
2022/07/10 02:29:24;;;;;;;4.23;2.80;;;16.40;99.90;;;;;;5024020;28;20022;-74
2022/07/10 02:31:50;;;;;;;2.73;2.43;;;16.30;99.80;;;;;;5023934;28;20081;-74
2022/07/10 02:34:16;;;;;;;2.80;2.20;;;16.30;99.60;;;;;;5019026;28;20058;-74
2022/07/10 02:36:41;;;;;;;2.77;2.27;;;16.30;99.50;;;;;;5003155;28;20034;-74
2022/07/10 02:39:08;;;;;;;6.60;2.47;;;16.20;99.00;;;;;;5004176;28;20030;-74
2022/07/10 02:41:35;;;;;;;6.88;2.55;;;16.20;98.90;;;;;;5002448;28;20022;-74
2022/07/10 02:44:02;;;;;;;4.20;2.30;;;16.20;98.90;;;;;;5002647;28;20232;-75
2022/07/10 02:46:28;;;;;;;4.28;2.58;;;16.20;98.80;;;;;;5002953;28;20026;-74
2022/07/10 02:48:53;;;;;;;4.53;2.33;;;16.20;98.80;;;;;;5003828;28;20246;-75
2022/07/10 02:51:19;;;;;;;5.73;2.57;;;16.10;98.90;;;;;;5003974;28;20195;-74
2022/07/10 02:53:45;;;;;;;2.93;2.30;;;16.20;98.90;;;;;;5017913;28;20018;-74
2022/07/10 02:56:11;;;;;;;3.07;2.47;;;16.10;98.90;;;;;;5022447;28;20332;-74
2022/07/10 02:58:37;;;;;;;3.77;2.53;;;16.10;98.80;;;;;;5022282;28;20024;-74
2022/07/10 03:01:03;;;;;;;4.82;2.35;;;16.10;98.70;;;;;;4996433;28;20081;-74
2022/07/10 03:03:29;;;;;;;5.60;2.20;;;16.10;98.70;;;;;;4986199;28;20383;-74
2022/07/10 03:05:55;;;;;;;6.83;2.23;;;16.10;98.90;;;;;;5002515;28;20046;-74
2022/07/10 03:08:20;;;;;;;5.77;2.20;;;16.10;99.00;;;;;;5002599;28;20023;-74
2022/07/10 03:10:46;;;;;;;7.83;2.50;;;16.00;98.80;;;;;;5003723;28;20086;-74
2022/07/10 03:13:12;;;;;;;3.67;2.33;;;16.00;98.80;;;;;;5003330;28;20053;-74
2022/07/10 03:15:37;;;;;;;4.43;2.63;;;16.00;99.00;;;;;;5002314;28;20084;-74
2022/07/10 03:18:03;;;;;;;5.83;2.33;;;15.90;99.20;;;;;;5003502;28;20034;-74
2022/07/10 03:20:29;;;;;;;4.17;2.33;;;15.90;99.70;;;;;;5002107;28;20032;-74
2022/07/10 03:22:55;;;;;;;5.47;2.77;;;15.90;99.50;;;;;;5002129;28;20034;-74
2022/07/10 03:25:21;;;;;;;4.17;2.50;;;15.80;99.60;;;;;;5008255;28;20212;-74
2022/07/10 03:27:46;;;;;;;4.03;2.43;;;15.80;99.80;;;;;;5023033;28;20312;-74
2022/07/10 03:30:12;;;;;;;5.23;2.77;;;15.80;99.80;;;;;;5019952;28;20045;-74
2022/07/10 03:32:38;;;;;;;3.40;2.47;;;15.80;99.90;;;;;;5003169;28;20026;-74
2022/07/10 03:35:04;;;;;;;5.83;2.50;;;15.80;99.90;;;;;;5001668;28;20129;-74
2022/07/10 03:37:30;;;;;;;2.30;1.83;;;15.70;99.60;;;;;;5002207;28;20026;-74
2022/07/10 03:39:55;;;;;;;3.67;2.00;;;15.80;99.20;;;;;;5002267;28;20381;-73
2022/07/10 03:42:21;;;;;;;3.23;1.80;;;15.80;98.40;;;;;;5002054;28;20029;-74
2022/07/10 03:44:47;;;;;;;3.17;2.10;;;15.80;98.30;;;;;;5002950;28;20300;-74
2022/07/10 03:47:13;;;;;;;4.10;1.67;;;15.80;98.20;;;;;;4985899;28;20129;-74
2022/07/10 03:49:39;;;;;;;6.73;1.90;;;15.80;97.90;;;;;;5001846;28;20026;-73
2022/07/10 03:52:05;;;;;;;5.03;2.05;;;15.70;97.80;;;;;;5003410;28;20089;-73
2022/07/10 03:54:31;;;;;;;2.83;2.10;;;15.70;97.60;;;;;;5003971;28;20034;-74
2022/07/10 03:59:42;;;;;;;1.70;1.42;;;15.70;97.50;;;;;;5006320;28;20037;-73
2022/07/10 04:02:07;;;;;;;2.83;1.87;;;15.70;97.60;;;;;;5024620;28;20021;-73
2022/07/10 04:04:33;;;;;;;1.60;1.50;;;15.60;97.10;;;;;;5024631;28;20021;-74
2022/07/10 04:06:59;;;;;;;6.20;1.63;;;15.60;96.90;;;;;;5025868;28;20213;-74
2022/07/10 04:09:25;;;;;;;4.10;1.63;;;15.50;96.90;;;;;;5025720;28;20346;-74
2022/07/10 04:11:50;;;;;;;3.80;1.40;;;15.50;96.30;;;;;;5025708;28;20256;-74
2022/07/10 04:14:16;;;;;;;2.60;1.60;;;15.40;95.90;;;;;;5024149;28;20071;-73
2022/07/10 04:16:42;;;;;;;5.13;2.00;;;15.30;96.00;;;;;;5025563;28;20033;-73
2022/07/10 04:19:08;;;;;;;3.47;1.30;;;15.30;96.50;;;;;;5025249;28;20321;-74
2022/07/10 04:21:33;;;;;;;3.10;1.40;;;15.20;95.80;;;;;;5025432;28;20324;-73
2022/07/10 04:23:59;;;;;;;4.40;2.40;;;15.10;96.20;;;;;;5024990;28;20018;-74
2022/07/10 04:26:25;;;;;;;3.20;1.47;;;15.10;96.90;;;;;;5025166;28;20029;-75
2022/07/10 04:28:51;;;;;;;1.50;1.40;;;15.10;97.00;;;;;;5025163;28;20018;-73
2022/07/10 04:31:16;;;;;;;5.60;1.83;;;15.10;96.30;;;;;;5025181;28;20268;-73
2022/07/10 04:33:42;;;;;;;3.23;1.27;;;15.20;96.20;;;;;;5007091;28;20363;-73
2022/07/10 04:36:08;;;;;;;2.87;1.17;;;15.20;95.70;;;;;;5022954;28;20033;-73
2022/07/10 04:38:33;;;;;;;6.20;1.63;;;15.30;95.00;;;;;;4987879;28;20029;-74
2022/07/10 04:40:59;;;;;;;4.77;1.30;;;15.30;95.10;;;;;;5005118;28;20033;-75
2022/07/10 04:43:25;;;;;;;4.73;1.90;;;15.30;94.90;;;;;;5003579;28;20035;-73
2022/07/10 04:45:51;;;;;;;3.27;1.30;;;15.40;94.70;;;;;;5003937;28;20090;-73
2022/07/10 04:48:17;;;;;;;3.33;1.40;;;15.30;94.20;;;;;;5005082;28;20032;-73
2022/07/10 04:50:43;;;;;;;1.37;1.03;;;15.30;94.40;;;;;;5003627;28;20026;-73
2022/07/10 04:53:08;;;;;;;7.87;1.40;;;15.30;94.50;;;;;;5004778;28;20372;-73
2022/07/10 04:55:34;;;;;;;4.83;1.40;;;15.40;94.80;;;;;;5003570;28;20030;-73
2022/07/10 04:58:00;;;;;;;5.30;1.63;;;15.50;95.30;;;;;;5005097;28;20034;-75
2022/07/10 05:00:25;;;;;;;3.50;1.67;;;15.70;95.50;;;;;;5004769;28;20352;-73
2022/07/10 05:02:51;;;;;;;3.60;1.20;;;15.80;93.90;;;;;;5004593;28;20048;-73
2022/07/10 05:05:17;;;;;;;4.17;1.60;;;15.90;93.90;;;;;;5004180;28;20229;-73
2022/07/10 05:07:43;;;;;;;5.93;1.97;;;15.90;93.20;;;;;;5004864;28;20030;-74
2022/07/10 05:10:09;;;;;;;4.53;1.63;;;15.90;93.40;;;;;;5003640;28;20030;-73
2022/07/10 05:12:34;;;;;;;2.70;1.50;;;15.90;93.30;;;;;;5004762;28;20041;-74
2022/07/10 05:15:00;;;;;;;2.63;1.00;;;15.90;93.30;;;;;;5003268;28;20085;-74
2022/07/10 05:17:28;;;;;;;2.03;0.90;;;15.90;93.40;;;;;;5003530;28;20026;-76
2022/07/10 05:19:57;;;;;;;3.65;1.20;;;15.90;93.30;;;;;;5003116;28;20050;-73
2022/07/10 05:22:23;;;;;;;3.72;1.40;;;15.80;92.40;;;;;;5003172;28;20022;-75
2022/07/10 05:24:48;;;;;;;3.05;1.10;;;15.90;92.40;;;;;;5002842;28;20026;-75
2022/07/10 05:27:17;;;;;;;1.90;1.10;;;15.90;92.20;;;;;;5003150;28;20129;-73
2022/07/10 05:29:43;;;;;;;1.88;1.00;;;15.80;92.10;;;;;;4987251;28;20041;-73
2022/07/10 05:32:09;;;;;;;3.43;1.00;;;15.80;91.90;;;;;;5009502;28;20077;-73
2022/07/10 05:34:35;;;;;;;4.33;1.10;;;15.80;91.70;;;;;;5002407;28;20156;-76
2022/07/10 05:37:01;;;;;;;3.40;1.08;;;15.80;91.90;;;;;;5004030;28;20077;-74
2022/07/10 05:39:26;;;;;;;2.27;0.80;;;15.80;92.10;;;;;;5003961;28;20328;-73
2022/07/10 05:41:54;;;;;;;2.33;0.87;;;15.70;90.50;;;;;;5002695;28;20022;-74
2022/07/10 05:44:19;;;;;;;2.63;1.08;;;15.60;88.30;;;;;;5002684;28;20022;-73
2022/07/10 05:46:46;;;;;;;1.97;0.70;;;15.50;89.90;;;;;;5003876;28;20028;-73
2022/07/10 05:49:12;;;;;;;2.28;0.90;;;15.50;90.30;;;;;;5002877;28;20026;-73
2022/07/10 05:51:38;;;;;;;2.60;0.80;;;15.40;89.40;;;;;;5002500;28;20229;-73
2022/07/10 05:54:04;;;;;;;5.60;0.90;;;15.40;89.10;;;;;;5008949;28;20269;-74
2022/07/10 05:56:29;;;;;;;1.87;0.67;;;15.40;89.10;;;;;;5013872;28;20305;-73
2022/07/10 05:58:55;;;;;;;2.47;1.30;;;15.50;88.30;;;;;;5023407;28;20022;-75
2022/07/10 06:01:22;;;;;;;4.77;1.17;;;15.40;87.50;;;;;;5010635;28;20026;-73
2022/07/10 06:03:48;;;;;;;3.10;0.77;;;15.50;88.80;;;;;;5006990;28;20022;-73
2022/07/10 06:06:15;;;;;;;6.57;1.00;;;15.40;89.00;;;;;;5013126;28;20049;-73
2022/07/10 06:08:44;;;;;;;2.00;0.80;;;15.40;88.50;;;;;;5013007;28;20048;-73
2022/07/10 06:11:10;;;;;;;6.72;1.30;;;15.30;89.60;;;;;;5003212;28;20025;-75
2022/07/10 06:13:37;;;;;;;2.67;0.90;;;15.40;89.70;;;;;;5012900;28;20309;-73
2022/07/10 06:16:04;;;;;;;3.75;1.33;;;15.40;90.00;;;;;;5021007;28;20040;-69
2022/07/10 06:18:31;;;;;;;2.17;0.80;;;15.50;90.10;;;;;;5008387;28;20122;-69
2022/07/10 06:20:56;;;;;;;4.85;1.00;;;15.50;90.00;;;;;;5011451;28;20032;-71
2022/07/10 06:23:22;;;;;;;4.23;1.37;;;15.40;89.50;;;;;;5022440;28;20026;-69
2022/07/10 06:25:49;;;;;;;3.50;1.10;;;15.50;90.30;;;;;;5009466;28;20065;-70
2022/07/10 06:28:18;;;;;;;2.53;0.88;;;15.50;90.40;;;;;;5016714;28;20018;-71
2022/07/10 06:30:46;;;;;;;3.83;1.38;;;15.50;90.30;;;;;;5024703;28;20036;-72
2022/07/10 06:33:11;;;;;;;2.33;0.90;;;15.60;90.20;;;;;;5022636;28;20089;-71
2022/07/10 06:35:37;;;;;;;3.27;0.90;;;15.60;90.00;;;;;;5026873;28;20304;-71
2022/07/10 06:38:03;;;;;;;2.53;1.10;;;15.40;89.00;;;;;;5013028;28;20076;-72
2022/07/10 06:40:29;;;;;;;7.93;2.17;;;15.50;90.40;;;;;;5031722;28;20037;-71
2022/07/10 06:42:55;;;;;;;5.50;1.02;;;15.50;90.40;;;;;;5021982;28;20045;-71
2022/07/10 06:45:21;;;;;;;4.57;0.93;;;15.50;90.90;;;;;;5037154;28;20041;-71
2022/07/10 06:47:56;;;;;;;2.43;1.17;;;15.50;90.50;;;;;;5024347;28;20415;-71
2022/07/10 06:50:22;;;;;;;5.85;2.15;;;15.50;88.40;;;;;;5031679;28;20025;-70
2022/07/10 06:52:49;;;;;;;12.02;2.53;;;15.60;90.00;;;;;;5033159;28;20056;-70
2022/07/10 06:55:15;;;;;;;;;;;15.60;89.80;;;;;;5030197;28;20244;-71
2022/07/10 06:57:40;;;;;;;4.10;1.40;;;15.70;87.90;;;;;;5026683;28;19915;-70
2022/07/10 07:00:09;;;;;;;3.67;0.90;;;15.80;86.50;;;;;;5029973;28;20226;-70
2022/07/10 07:02:35;;;;;;;4.65;1.52;;;15.90;87.40;;;;;;5014563;28;20048;-70
2022/07/10 07:05:02;;;;;;;7.22;3.28;;;16.10;87.90;;;;;;5023186;28;20041;-69
2022/07/10 07:07:27;;;;;;;3.60;1.43;;;16.10;83.20;;;;;;5024269;28;20060;-69
2022/07/10 07:09:53;;;;;;;3.17;1.10;;;16.30;84.30;;;;;;5037505;28;20060;-69
2022/07/10 07:12:19;;;;;;;3.60;1.70;;;16.40;86.60;;;;;;5022164;28;20029;-70
2022/07/10 07:14:45;;;;;;;8.67;3.53;;;16.40;80.40;;;;;;5019359;28;20034;-68
2022/07/10 07:17:13;;;;;;;3.23;1.53;;;16.50;80.00;;;;;;5011139;28;20030;-69
2022/07/10 07:25:09;;;;;;;4.80;1.20;;;16.60;81.10;;;;;;5021960;28;20061;-69
2022/07/10 07:27:36;;;;;;;2.83;1.77;;;16.60;81.00;;;;;;5020801;28;20064;-69
2022/07/10 07:30:06;;;;;;;;;;;16.60;77.50;;;;;;5003833;28;20025;-70
2022/07/10 07:32:32;;;;;;;2.15;1.00;;;16.60;76.90;;;;;;5010852;28;19910;-70
2022/07/10 07:34:58;;;;;;;2.55;0.70;;;16.60;78.20;;;;;;5019813;23;20038;-69
2022/07/10 07:37:45;;;;;;;2.90;0.90;;;16.70;79.50;;;;;;5002012;28;20046;-69
2022/07/10 07:40:15;;;;;;;4.05;1.08;;;16.70;80.00;;;;;;4999612;28;20045;-70
2022/07/10 07:42:41;;;;;;;3.25;0.80;;;16.70;76.70;;;;;;4997887;28;20026;-71
2022/07/10 07:45:08;;;;;;;2.90;0.60;;;16.70;78.60;;;;;;4998410;28;20360;-70
2022/07/10 07:47:54;;;;;;;1.60;1.00;;;16.70;79.90;;;;;;4996862;28;20022;-70
2022/07/10 07:50:22;;;;;;;2.92;0.70;;;16.70;79.10;;;;;;5001964;28;20097;-70
2022/07/10 07:52:48;;;;;;;0.68;0.60;;;16.70;78.70;;;;;;4998000;28;20268;-70
2022/07/10 07:55:15;;;;;;;2.10;0.60;;;16.70;77.30;;;;;;4999362;28;20018;-70
2022/07/10 07:57:42;;;;;;;2.40;0.65;;;16.80;74.60;;;;;;5003263;28;20060;-70
2022/07/10 08:00:09;;;;;;;2.08;0.70;;;16.90;76.30;;;;;;4992932;28;20058;-74
2022/07/10 08:02:35;;;;;;;2.83;0.88;;;17.10;75.10;;;;;;4990130;28;20045;-72
2022/07/10 08:05:01;;;;;;;2.25;0.88;;;17.20;74.90;;;;;;5001602;28;20052;-73
2022/07/10 08:07:37;;;;;;;1.58;0.93;;;17.20;75.20;;;;;;5000603;28;20030;-73
2022/07/10 08:10:04;;;;;;;2.92;0.73;;;17.30;75.70;;;;;;4996665;28;20026;-73
2022/07/10 08:12:30;;;;;;;4.55;1.33;;;17.30;76.30;;;;;;4994352;28;20054;-72
2022/07/10 08:14:56;;;;;;;0.60;0.60;;;17.30;76.00;;;;;;5002802;28;20053;-72
2022/07/10 08:17:21;;;;;;;2.00;0.60;;;17.30;76.90;;;;;;4978690;28;20069;-72
2022/07/10 08:19:47;;;;;;;2.87;1.07;;;17.40;75.90;;;;;;5001579;28;20034;-72
2022/07/10 08:22:13;;;;;;;1.07;0.60;;;17.40;75.40;;;;;;5003029;28;20086;-74
2022/07/10 08:24:39;;;;;;;3.30;0.70;;;17.40;75.60;;;;;;5002625;28;20018;-73
2022/07/10 08:27:07;;;;;;;1.83;0.70;;;17.50;72.80;;;;;;5002626;28;20106;-73
2022/07/10 08:29:33;;;;;;;2.38;0.80;;;17.60;73.00;;;;;;4999821;28;20053;-73
2022/07/10 08:31:59;;;;;;;5.63;1.30;;;17.70;72.60;;;;;;4999149;28;20026;-74
2022/07/10 08:34:25;;;;;;;4.03;0.80;;;17.70;74.10;;;;;;5002246;28;20037;-74
2022/07/10 08:36:51;;;;;;;4.28;0.80;;;17.70;74.10;;;;;;5003652;28;20029;-73
2022/07/10 08:39:20;;;;;;;3.20;0.73;;;17.70;72.60;;;;;;5003550;28;20030;-74
2022/07/10 08:41:47;;;;;;;1.95;0.50;;;17.70;73.20;;;;;;4980972;28;20042;-73
2022/07/10 08:44:12;;;;;;;5.00;1.35;;;17.60;72.60;;;;;;5001957;28;20015;-73
2022/07/10 08:46:38;;;;;;;0.90;0.67;;;17.50;71.90;;;;;;5018994;28;20053;-73
2022/07/10 08:49:09;;;;;;;2.87;0.63;;;17.60;73.90;;;;;;5001802;28;20089;-73
2022/07/10 08:51:51;;;;;;;2.83;0.60;;;17.60;74.70;;;;;;5001464;28;20026;-74
2022/07/10 08:54:17;;;;;;;1.20;0.70;;;17.60;74.00;;;;;;4979825;28;20018;-74
2022/07/10 08:56:43;;;;;;;1.17;0.53;;;17.60;75.70;;;;;;5012934;28;20042;-73
2022/07/10 08:59:08;;;;;;;1.00;0.43;;;17.60;69.70;;;;;;5003970;28;20038;-73
2022/07/10 09:01:35;;;;;;;0.47;0.40;;;17.60;68.40;;;;;;5007212;28;20038;-74
2022/07/10 09:04:00;;;;;;;0.70;0.45;;;17.50;70.00;;;;;;4995982;28;20034;-73
2022/07/10 09:06:29;;;;;;;0.80;0.40;;;17.50;70.80;;;;;;5004451;28;20056;-73
2022/07/10 09:09:03;;;;;;;1.02;0.55;;;17.60;72.80;;;;;;4995277;28;20029;-73
2022/07/10 09:11:30;;;;;;;1.55;0.65;;;17.60;72.80;;;;;;5001247;28;20245;-73
2022/07/10 09:14:07;;;;;;;0.68;0.50;;;17.70;73.40;;;;;;5001220;28;20325;-73
2022/07/10 09:16:35;;;;;;;3.50;0.63;;;17.80;71.30;;;;;;4989162;28;20038;-73
2022/07/10 09:19:27;;;;;;;2.22;0.60;;;17.80;67.50;;;;;;5008411;28;20022;-73
2022/07/10 09:21:54;;;;;;;0.60;0.40;;;17.80;67.00;;;;;;5003679;28;20333;-73
2022/07/10 09:24:21;;;;;;;2.53;0.70;;;17.70;67.40;;;;;;5005595;28;20022;-72
2022/07/10 09:27:03;;;;;;;1.15;0.50;;;17.80;70.10;;;;;;5005786;28;20018;-73
2022/07/10 09:29:33;;;;;;;2.83;0.80;;;17.80;69.80;;;;;;5006080;28;20030;-73
2022/07/10 09:32:01;;;;;;;1.75;0.60;;;17.80;73.60;;;;;;5005927;28;20023;-72
2022/07/10 09:34:37;;;;;;;2.13;0.50;;;17.80;73.70;;;;;;5005201;28;20089;-73
2022/07/10 09:37:26;;;;;;;2.70;0.70;;;17.80;71.80;;;;;;4986766;28;20026;-73
2022/07/10 09:40:18;;;;;;;4.88;0.60;;;17.70;71.50;;;;;;4984872;28;20022;-74
2022/07/10 09:42:44;;;;;;;1.23;0.60;;;17.70;71.60;;;;;;4984763;28;20042;-74
2022/07/10 09:45:13;;;;;;;2.40;0.63;;;17.60;70.60;;;;;;4986088;28;20042;-73
2022/07/10 09:48:02;;;;;;;3.25;1.23;;;17.60;70.10;;;;;;4985988;28;20018;-73
2022/07/10 09:50:33;;;;;;;2.60;0.85;;;17.60;72.70;;;;;;5000236;28;20340;-73
2022/07/10 09:53:02;;;;;;;1.65;0.70;;;17.60;74.90;;;;;;4984700;28;20372;-73
2022/07/10 09:55:31;;;;;;;1.45;0.65;;;17.70;73.50;;;;;;4985982;28;20022;-73
2022/07/10 09:58:05;;;;;;;2.35;0.60;;;17.80;70.40;;;;;;4969361;28;20077;-73
2022/07/10 10:00:38;;;;;;;2.80;0.57;;;17.80;72.30;;;;;;4970647;28;20050;-72
2022/07/10 10:03:05;;;;;;;1.90;0.60;;;17.90;73.10;;;;;;4985336;28;20022;-73
2022/07/10 10:05:39;;;;;;;4.28;0.98;;;18.00;73.60;;;;;;4960930;28;20023;-73
2022/07/10 10:08:30;;;;;;;3.70;0.80;;;18.10;74.50;;;;;;5006100;28;20444;-72
2022/07/10 10:10:57;;;;;;;1.10;0.55;;;18.10;73.80;;;;;;4989428;28;20022;-72
2022/07/10 10:13:27;;;;;;;1.77;0.60;;;18.20;73.90;;;;;;5004220;28;20339;-72
2022/07/10 10:15:54;;;;;;;1.55;0.70;;;18.20;71.80;;;;;;5004476;28;20041;-73
2022/07/10 10:18:22;;;;;;;1.58;0.95;;;18.30;69.30;;;;;;5004809;28;20026;-73
2022/07/10 10:20:49;;;;;;;3.17;0.63;;;18.30;69.30;;;;;;5002276;28;20036;-73
2022/07/10 10:23:22;;;;;;;3.13;1.25;;;18.30;70.10;;;;;;5017871;28;20220;-72
2022/07/10 10:25:50;;;;;;;2.92;0.77;;;18.50;71.90;;;;;;5011539;28;20049;-72
2022/07/10 10:28:17;;;;;;;1.85;0.77;;;18.60;72.40;;;;;;5003626;28;20026;-73
2022/07/10 10:30:45;;;;;;;1.80;0.98;;;18.60;68.40;;;;;;5005026;28;20109;-72
2022/07/10 10:33:32;;;;;;;2.13;1.08;;;18.70;70.00;;;;;;4987436;28;20030;-72
2022/07/10 10:35:59;;;;;;;4.30;1.38;;;18.90;71.10;;;;;;5003935;28;20030;-73
2022/07/10 10:38:24;;;;;;;7.75;1.00;;;18.90;67.90;;;;;;4987249;28;20041;-73
2022/07/10 10:40:50;;;;;;;1.67;0.87;;;18.80;67.30;;;;;;5004767;28;20022;-73
2022/07/10 10:43:18;;;;;;;4.53;1.07;;;18.90;70.90;;;;;;4986647;28;20313;-75
2022/07/10 10:45:44;;;;;;;4.95;1.20;;;18.90;68.60;;;;;;5004265;28;20314;-73
2022/07/10 10:48:15;;;;;;;4.07;2.05;;;19.10;68.60;;;;;;5003913;28;20027;-73
2022/07/10 10:50:51;;;;;;;9.25;2.35;;;18.90;64.80;;;;;;5002921;28;20355;-73
2022/07/10 10:53:27;;;;;;;5.03;1.67;;;18.80;67.80;;;;;;4986367;28;20240;-73
2022/07/10 10:56:05;;;;;;;4.75;1.77;;;18.90;70.00;;;;;;5004508;28;20026;-72
2022/07/10 10:58:38;;;;;;;6.75;2.08;;;18.90;71.70;;;;;;4991915;28;20104;-73
2022/07/10 11:01:05;;;;;;;3.33;1.52;;;18.90;71.80;;;;;;5000597;28;20026;-72
2022/07/10 11:03:31;;;;;;;4.13;0.77;;;18.80;68.20;;;;;;5002255;28;20094;-72
2022/07/10 11:05:56;;;;;;;3.43;0.90;;;18.70;69.50;;;;;;5004191;28;20033;-73
2022/07/10 11:08:45;;;;;;;4.00;0.80;;;18.80;70.20;;;;;;5003916;28;20022;-72
2022/07/10 11:11:29;;;;;;;1.90;0.60;;;18.60;68.10;;;;;;5003777;28;20025;-73
2022/07/10 11:13:57;;;;;;;1.95;0.70;;;18.70;69.40;;;;;;5003304;28;20026;-73
2022/07/10 11:16:24;;;;;;;1.10;0.70;;;18.70;68.10;;;;;;5003525;28;20351;-73
2022/07/10 11:18:54;;;;;;;2.58;0.70;;;18.60;66.70;;;;;;4970758;28;20476;-73
2022/07/10 11:21:24;;;;;;;3.28;0.65;;;18.70;66.90;;;;;;5003382;28;20340;-73
2022/07/10 11:24:20;;;;;;;1.85;1.02;;;18.80;69.10;;;;;;5003219;28;20089;-73
2022/07/10 11:26:57;;;;;;;4.07;1.05;;;18.90;68.40;;;;;;4986897;28;20224;-73
2022/07/10 11:29:23;;;;;;;2.22;0.93;;;18.90;66.20;;;;;;4986480;28;20034;-74
2022/07/10 11:31:55;;;;;;;2.07;0.90;;;18.90;67.50;;;;;;5003406;28;20042;-73
2022/07/10 11:34:33;;;;;;;2.60;0.70;;;19.10;68.90;;;;;;5001864;28;20022;-73
2022/07/10 11:36:59;;;;;;;1.60;0.47;;;19.10;67.40;;;;;;4972178;28;20025;-73
2022/07/10 11:39:25;;;;;;;3.10;1.03;;;19.20;66.70;;;;;;5002240;28;20076;-73
2022/07/10 11:41:51;;;;;;;0.67;0.40;;;19.20;64.40;;;;;;5003179;28;20084;-73
2022/07/10 11:44:18;;;;;;;0.97;0.60;;;19.20;64.00;;;;;;5003003;28;20368;-73
2022/07/10 11:46:44;;;;;;;0.60;0.43;;;19.20;66.10;;;;;;5002010;28;20018;-73
2022/07/10 11:49:10;;;;;;;0.60;0.50;;;19.20;66.20;;;;;;5003230;28;20022;-73
2022/07/10 11:51:39;;;;;;;2.03;0.70;;;19.20;65.30;;;;;;5001669;28;20029;-73
2022/07/10 11:54:18;;;;;;;2.10;0.88;;;19.20;67.50;;;;;;4970009;28;20576;-74
2022/07/10 11:56:52;;;;;;;3.40;0.63;;;19.20;69.00;;;;;;5003184;28;20377;-73
2022/07/10 11:59:19;;;;;;;1.90;0.70;;;19.10;69.20;;;;;;5001823;28;20038;-73
2022/07/10 12:01:50;;;;;;;1.15;0.50;;;19.10;67.00;;;;;;4986018;28;20023;-73
2022/07/10 12:04:18;;;;;;;0.98;0.70;;;19.10;66.30;;;;;;5006065;28;20467;-73
2022/07/10 12:06:46;;;;;;;3.22;0.70;;;19.10;66.70;;;;;;4996857;28;20380;-74
2022/07/10 12:09:16;;;;;;;0.45;0.45;;;19.00;62.90;;;;;;4996290;28;20026;-73
2022/07/10 12:11:44;;;;;;;2.20;0.60;;;18.80;62.20;;;;;;4996317;28;20030;-73
2022/07/10 12:14:18;;;;;;;1.67;0.80;;;18.70;64.00;;;;;;4999854;28;20023;-73
2022/07/10 12:16:45;;;;;;;2.08;0.80;;;18.60;64.20;;;;;;4977972;28;20082;-73
2022/07/10 12:19:14;;;;;;;2.75;0.65;;;18.60;65.80;;;;;;4999455;28;20325;-74
2022/07/10 12:21:44;;;;;;;3.50;0.98;;;18.70;67.70;;;;;;5005348;28;20326;-73
2022/07/10 12:24:10;;;;;;;2.00;0.70;;;18.90;67.20;;;;;;5020841;28;20018;-73
2022/07/10 12:26:39;;;;;;;2.45;0.75;;;19.20;67.30;;;;;;5005251;28;20093;-74
2022/07/10 12:29:05;;;;;;;1.70;0.63;;;19.30;67.30;;;;;;4984405;28;20052;-73
2022/07/10 12:31:32;;;;;;;2.63;0.87;;;19.40;63.00;;;;;;5004835;28;20284;-74
2022/07/10 12:34:03;;;;;;;2.65;0.70;;;19.50;64.40;;;;;;4986486;28;20029;-75
2022/07/10 12:36:49;;;;;;;1.85;0.60;;;19.60;63.80;;;;;;4985889;28;20062;-75
2022/07/10 12:39:21;;;;;;;1.38;0.75;;;19.60;62.80;;;;;;4987307;28;20018;-76
2022/07/10 12:41:57;;;;;;;2.42;1.02;;;19.50;62.30;;;;;;4970970;28;20027;-81
2022/07/10 12:44:49;;;;;;;1.40;0.70;;;19.60;65.80;;;;;;5003912;28;20260;-78
2022/07/10 12:47:20;;;;;;;2.35;0.98;;;19.80;63.00;;;;;;5006662;28;20037;-80
2022/07/10 12:50:02;;;;;;;1.65;0.80;;;20.10;63.30;;;;;;4988905;28;20022;-80
2022/07/10 12:52:40;;;;;;;2.83;1.13;;;20.40;61.20;;;;;;5008386;28;20056;-80
2022/07/10 12:55:18;;;;;;;0.80;0.40;;;20.70;61.30;;;;;;4990507;28;20022;-76
2022/07/10 12:57:52;;;;;;;0.93;0.52;;;20.80;59.40;;;;;;5005978;28;20248;-76
2022/07/10 13:00:27;;;;;;;0.40;0.40;;;21.10;57.70;;;;;;5021841;28;20014;-76